sensor_id;sensor_type;location;lat;lon;timestamp;pressure;altitude;pressure_sealevel;temperature;humidity
29379;BME280;16362;47.202;15.258;2022-07-10T00:01:21;96483.97;;;15.35;100.00
29379;BME280;16362;47.202;15.258;2022-07-10T00:03:48;96492.44;;;15.32;100.00
29379;BME280;16362;47.202;15.258;2022-07-10T00:06:17;96503.59;;;15.36;100.00
29379;BME280;16362;47.202;15.258;2022-07-10T00:08:43;96506.28;;;15.36;100.00
29379;BME280;16362;47.202;15.258;2022-07-10T00:11:10;96502.34;;;15.31;100.00
29379;BME280;16362;47.202;15.258;2022-07-10T00:13:37;96501.31;;;15.32;100.00
29379;BME280;16362;47.202;15.258;2022-07-10T00:16:04;96507.34;;;15.35;100.00
29379;BME280;16362;47.202;15.258;2022-07-10T00:18:31;96499.25;;;15.28;100.00
29379;BME280;16362;47.202;15.258;2022-07-10T00:20:58;96498.78;;;15.24;100.00
29379;BME280;16362;47.202;15.258;2022-07-10T00:23:24;96494.88;;;15.27;100.00
29379;BME280;16362;47.202;15.258;2022-07-10T00:25:51;96490.50;;;15.19;100.00
29379;BME280;16362;47.202;15.258;2022-07-10T00:28:18;96483.25;;;15.13;100.00
29379;BME280;16362;47.202;15.258;2022-07-10T00:30:45;96484.47;;;15.10;100.00
29379;BME280;16362;47.202;15.258;2022-07-10T00:33:11;96478.63;;;15.07;100.00
29379;BME280;16362;47.202;15.258;2022-07-10T00:35:38;96474.47;;;15.04;100.00
29379;BME280;16362;47.202;15.258;2022-07-10T00:38:05;96465.81;;;15.02;100.00
29379;BME280;16362;47.202;15.258;2022-07-10T00:40:32;96467.03;;;14.99;100.00
29379;BME280;16362;47.202;15.258;2022-07-10T00:42:58;96466.59;;;14.96;100.00
29379;BME280;16362;47.202;15.258;2022-07-10T00:45:25;96472.81;;;14.96;100.00
29379;BME280;16362;47.202;15.258;2022-07-10T00:47:52;96467.00;;;14.93;100.00
29379;BME280;16362;47.202;15.258;2022-07-10T00:50:19;96470.91;;;14.90;100.00
29379;BME280;16362;47.202;15.258;2022-07-10T00:52:46;96466.53;;;14.89;100.00
29379;BME280;16362;47.202;15.258;2022-07-10T00:55:13;96464.06;;;14.88;100.00
29379;BME280;16362;47.202;15.258;2022-07-10T00:57:40;96463.25;;;14.87;100.00
29379;BME280;16362;47.202;15.258;2022-07-10T01:00:07;96462.78;;;14.84;100.00
29379;BME280;16362;47.202;15.258;2022-07-10T01:02:35;96446.63;;;14.77;100.00
29379;BME280;16362;47.202;15.258;2022-07-10T01:05:02;96440.81;;;14.73;100.00
29379;BME280;16362;47.202;15.258;2022-07-10T01:07:30;96440.38;;;14.70;100.00
29379;BME280;16362;47.202;15.258;2022-07-10T01:09:57;96441.59;;;14.67;100.00
29379;BME280;16362;47.202;15.258;2022-07-10T01:12:27;96443.19;;;14.61;100.00
29379;BME280;16362;47.202;15.258;2022-07-10T01:14:54;96448.88;;;14.52;100.00
29379;BME280;16362;47.202;15.258;2022-07-10T01:17:22;96445.38;;;14.51;100.00
29379;BME280;16362;47.202;15.258;2022-07-10T01:19:49;96434.78;;;14.43;100.00
29379;BME280;16362;47.202;15.258;2022-07-10T01:22:15;96430.84;;;14.39;100.00
29379;BME280;16362;47.202;15.258;2022-07-10T01:24:42;96422.97;;;14.37;100.00
29379;BME280;16362;47.202;15.258;2022-07-10T01:27:11;96435.88;;;14.27;100.00
29379;BME280;16362;47.202;15.258;2022-07-10T01:29:39;96435.28;;;14.25;100.00
29379;BME280;16362;47.202;15.258;2022-07-10T01:32:06;96429.06;;;14.24;100.00
29379;BME280;16362;47.202;15.258;2022-07-10T01:34:33;96418.50;;;14.23;100.00
29379;BME280;16362;47.202;15.258;2022-07-10T01:37:00;96424.69;;;14.23;100.00
29379;BME280;16362;47.202;15.258;2022-07-10T01:39:26;96415.44;;;14.26;100.00
29379;BME280;16362;47.202;15.258;2022-07-10T01:41:53;96408.59;;;14.23;100.00
29379;BME280;16362;47.202;15.258;2022-07-10T01:44:20;96401.59;;;14.22;100.00
29379;BME280;16362;47.202;15.258;2022-07-10T01:46:47;96403.22;;;14.23;100.00
29379;BME280;16362;47.202;15.258;2022-07-10T01:49:15;96408.59;;;14.23;100.00
29379;BME280;16362;47.202;15.258;2022-07-10T01:51:42;96410.25;;;14.24;100.00
29379;BME280;16362;47.202;15.258;2022-07-10T01:54:10;96416.84;;;14.22;100.00
29379;BME280;16362;47.202;15.258;2022-07-10T01:56:37;96418.25;;;14.18;100.00
29379;BME280;16362;47.202;15.258;2022-07-10T01:59:05;96426.09;;;14.19;100.00
29379;BME280;16362;47.202;15.258;2022-07-10T02:01:31;96420.38;;;14.22;100.00
29379;BME280;16362;47.202;15.258;2022-07-10T02:03:58;96406.09;;;14.22;100.00
29379;BME280;16362;47.202;15.258;2022-07-10T02:06:44;96405.75;;;14.25;100.00
29379;BME280;16362;47.202;15.258;2022-07-10T02:09:11;96410.84;;;14.20;100.00
29379;BME280;16362;47.202;15.258;2022-07-10T02:11:38;96402.81;;;14.20;100.00
29379;BME280;16362;47.202;15.258;2022-07-10T02:14:04;96404.59;;;14.12;100.00
29379;BME280;16362;47.202;15.258;2022-07-10T02:16:31;96401.53;;;14.15;100.00
29379;BME280;16362;47.202;15.258;2022-07-10T02:18:58;96398.25;;;14.20;100.00
29379;BME280;16362;47.202;15.258;2022-07-10T02:21:25;96403.22;;;14.23;100.00
29379;BME280;16362;47.202;15.258;2022-07-10T02:23:51;96398.72;;;14.24;100.00
29379;BME280;16362;47.202;15.258;2022-07-10T02:26:18;96397.84;;;14.23;100.00
29379;BME280;16362;47.202;15.258;2022-07-10T02:28:45;96396.84;;;14.24;100.00
29379;BME280;16362;47.202;15.258;2022-07-10T02:31:12;96410.72;;;14.28;100.00
29379;BME280;16362;47.202;15.258;2022-07-10T02:33:38;96409.69;;;14.29;100.00
29379;BME280;16362;47.202;15.258;2022-07-10T02:36:05;96400.59;;;14.30;100.00
29379;BME280;16362;47.202;15.258;2022-07-10T02:38:32;96396.44;;;14.27;100.00
29379;BME280;16362;47.202;15.258;2022-07-10T02:40:59;96400.19;;;14.26;100.00
29379;BME280;16362;47.202;15.258;2022-07-10T02:43:26;96396.66;;;14.26;100.00
29379;BME280;16362;47.202;15.258;2022-07-10T02:45:52;96391.28;;;14.26;100.00
29379;BME280;16362;47.202;15.258;2022-07-10T02:48:19;96388.78;;;14.24;100.00
29379;BME280;16362;47.202;15.258;2022-07-10T02:50:46;96385.09;;;14.25;100.00
29379;BME280;16362;47.202;15.258;2022-07-10T02:53:13;96389.44;;;14.26;100.00
29379;BME280;16362;47.202;15.258;2022-07-10T02:55:39;96395.44;;;14.28;100.00
29379;BME280;16362;47.202;15.258;2022-07-10T02:58:06;96392.94;;;14.27;100.00
29379;BME280;16362;47.202;15.258;2022-07-10T03:00:33;96393.97;;;14.26;100.00
29379;BME280;16362;47.202;15.258;2022-07-10T03:03:00;96404.91;;;14.24;100.00
29379;BME280;16362;47.202;15.258;2022-07-10T03:05:26;96406.56;;;14.25;100.00
29379;BME280;16362;47.202;15.258;2022-07-10T03:07:53;96400.53;;;14.23;100.00
29379;BME280;16362;47.202;15.258;2022-07-10T03:10:20;96394.34;;;14.23;100.00
29379;BME280;16362;47.202;15.258;2022-07-10T03:12:47;96408.59;;;14.23;100.00
29379;BME280;16362;47.202;15.258;2022-07-10T03:15:13;96401.13;;;14.19;100.00
29379;BME280;16362;47.202;15.258;2022-07-10T03:17:40;96398.25;;;14.20;100.00
29379;BME280;16362;47.202;15.258;2022-07-10T03:20:08;96399.94;;;14.21;100.00
29379;BME280;16362;47.202;15.258;2022-07-10T03:22:35;96402.81;;;14.20;100.00
29379;BME280;16362;47.202;15.258;2022-07-10T03:25:03;96398.00;;;14.15;100.00
29379;BME280;16362;47.202;15.258;2022-07-10T03:27:30;96403.56;;;14.13;100.00
29379;BME280;16362;47.202;15.258;2022-07-10T03:29:56;96401.91;;;14.12;100.00
29379;BME280;16362;47.202;15.258;2022-07-10T03:32:23;96392.00;;;14.13;100.00
29379;BME280;16362;47.202;15.258;2022-07-10T03:34:50;96391.16;;;14.12;100.00
29379;BME280;16362;47.202;15.258;2022-07-10T03:37:16;96383.31;;;14.11;100.00
29379;BME280;16362;47.202;15.258;2022-07-10T03:39:43;96386.19;;;14.09;100.00
29379;BME280;16362;47.202;15.258;2022-07-10T03:42:10;96380.81;;;14.09;100.00
29379;BME280;16362;47.202;15.258;2022-07-10T03:44:37;96394.91;;;14.11;100.00
29379;BME280;16362;47.202;15.258;2022-07-10T03:47:04;96396.53;;;14.12;100.00
29379;BME280;16362;47.202;15.258;2022-07-10T03:49:30;96397.13;;;14.08;100.00
29379;BME280;16362;47.202;15.258;2022-07-10T03:52:00;96375.00;;;14.06;100.00
29379;BME280;16362;47.202;15.258;2022-07-10T03:54:31;96366.78;;;14.07;100.00
29379;BME280;16362;47.202;15.258;2022-07-10T03:56:58;96355.81;;;14.02;100.00
29379;BME280;16362;47.202;15.258;2022-07-10T03:59:43;96360.16;;;14.03;100.00
29379;BME280;16362;47.202;15.258;2022-07-10T04:02:10;96357.63;;;14.02;100.00
29379;BME280;16362;47.202;15.258;2022-07-10T04:04:37;96360.16;;;14.03;100.00
29379;BME280;16362;47.202;15.258;2022-07-10T04:07:04;96359.50;;;14.01;100.00
29379;BME280;16362;47.202;15.258;2022-07-10T04:09:32;96350.63;;;14.01;100.00
29379;BME280;16362;47.202;15.258;2022-07-10T04:11:59;96348.56;;;14.03;100.00
29379;BME280;16362;47.202;15.258;2022-07-10T04:14:26;96346.53;;;14.05;100.00
29379;BME280;16362;47.202;15.258;2022-07-10T04:16:52;96350.69;;;14.07;100.00
29379;BME280;16362;47.202;15.258;2022-07-10T04:19:19;96353.19;;;14.09;100.00
29379;BME280;16362;47.202;15.258;2022-07-10T04:21:48;96348.00;;;14.07;100.00
29379;BME280;16362;47.202;15.258;2022-07-10T04:24:15;96364.06;;;14.01;100.00
29379;BME280;16362;47.202;15.258;2022-07-10T04:26:43;96364.41;;;13.97;100.00
29379;BME280;16362;47.202;15.258;2022-07-10T04:29:10;96367.56;;;14.01;100.00
29379;BME280;16362;47.202;15.258;2022-07-10T04:31:37;96368.38;;;14.02;100.00
29379;BME280;16362;47.202;15.258;2022-07-10T04:34:04;96365.53;;;14.03;100.00
29379;BME280;16362;47.202;15.258;2022-07-10T04:36:30;96362.00;;;14.03;100.00
29379;BME280;16362;47.202;15.258;2022-07-10T04:38:57;96367.34;;;14.03;100.00
29379;BME280;16362;47.202;15.258;2022-07-10T04:41:24;96366.59;;;14.09;100.00
29379;BME280;16362;47.202;15.258;2022-07-10T04:43:51;96370.53;;;14.13;100.00
29379;BME280;16362;47.202;15.258;2022-07-10T04:46:17;96361.28;;;14.15;100.00
29379;BME280;16362;47.202;15.258;2022-07-10T04:48:44;96361.53;;;14.21;100.00
29379;BME280;16362;47.202;15.258;2022-07-10T04:51:11;96361.94;;;14.24;100.00
29379;BME280;16362;47.202;15.258;2022-07-10T04:53:37;96360.53;;;14.28;100.00
29379;BME280;16362;47.202;15.258;2022-07-10T04:56:04;96358.25;;;14.25;100.00
29379;BME280;16362;47.202;15.258;2022-07-10T04:58:31;96355.16;;;14.28;100.00
29379;BME280;16362;47.202;15.258;2022-07-10T05:00:57;96345.88;;;14.31;100.00
29379;BME280;16362;47.202;15.258;2022-07-10T05:03:24;96345.44;;;14.27;100.00
29379;BME280;16362;47.202;15.258;2022-07-10T05:05:51;96348.00;;;14.36;100.00
29379;BME280;16362;47.202;15.258;2022-07-10T05:08:18;96345.53;;;14.41;100.00
29379;BME280;16362;47.202;15.258;2022-07-10T05:10:44;96346.19;;;14.43;100.00
29379;BME280;16362;47.202;15.258;2022-07-10T05:13:11;96341.25;;;14.46;100.00
29379;BME280;16362;47.202;15.258;2022-07-10T05:15:38;96348.91;;;14.49;100.00
29379;BME280;16362;47.202;15.258;2022-07-10T05:18:06;96347.03;;;14.50;100.00
29379;BME280;16362;47.202;15.258;2022-07-10T05:20:33;96351.59;;;14.49;100.00
29379;BME280;16362;47.202;15.258;2022-07-10T05:23:01;96351.41;;;14.51;100.00
29379;BME280;16362;47.202;15.258;2022-07-10T05:25:28;96353.44;;;14.49;100.00
29379;BME280;16362;47.202;15.258;2022-07-10T05:27:56;96346.81;;;14.45;100.00
29379;BME280;16362;47.202;15.258;2022-07-10T05:30:24;96351.59;;;14.49;100.00
29379;BME280;16362;47.202;15.258;2022-07-10T05:32:51;96348.47;;;14.46;100.00
29379;BME280;16362;47.202;15.258;2022-07-10T05:35:17;96348.25;;;14.47;100.00
29379;BME280;16362;47.202;15.258;2022-07-10T05:37:44;96348.50;;;14.53;100.00
29379;BME280;16362;47.202;15.258;2022-07-10T05:40:11;96342.72;;;14.56;100.00
29379;BME280;16362;47.202;15.258;2022-07-10T05:42:38;96342.56;;;14.57;100.00
29379;BME280;16362;47.202;15.258;2022-07-10T05:45:05;96338.91;;;14.65;100.00
29379;BME280;16362;47.202;15.258;2022-07-10T05:47:33;96344.50;;;14.70;100.00
29379;BME280;16362;47.202;15.258;2022-07-10T05:50:00;96336.03;;;14.73;100.00
29379;BME280;16362;47.202;15.258;2022-07-10T05:52:26;96341.84;;;14.77;100.00
29379;BME280;16362;47.202;15.258;2022-07-10T05:54:55;96353.25;;;14.79;100.00
29379;BME280;16362;47.202;15.258;2022-07-10T05:57:22;96356.34;;;14.82;100.00
29379;BME280;16362;47.202;15.258;2022-07-10T05:59:49;96357.97;;;14.77;100.00
29379;BME280;16362;47.202;15.258;2022-07-10T06:02:16;96353.25;;;14.79;100.00
29379;BME280;16362;47.202;15.258;2022-07-10T06:04:49;96355.97;;;14.86;100.00
29379;BME280;16362;47.202;15.258;2022-07-10T06:07:16;96354.13;;;14.93;100.00
29379;BME280;16362;47.202;15.258;2022-07-10T06:09:43;96355.84;;;15.01;100.00
29379;BME280;16362;47.202;15.258;2022-07-10T06:12:10;96349.63;;;15.07;100.00
29379;BME280;16362;47.202;15.258;2022-07-10T06:14:37;96353.38;;;15.12;100.00
29379;BME280;16362;47.202;15.258;2022-07-10T06:17:03;96360.63;;;15.12;100.00
29379;BME280;16362;47.202;15.258;2022-07-10T06:19:30;96350.66;;;15.06;100.00
29379;BME280;16362;47.202;15.258;2022-07-10T06:21:57;96348.41;;;15.09;100.00
29379;BME280;16362;47.202;15.258;2022-07-10T06:24:42;96352.75;;;15.10;100.00
29379;BME280;16362;47.202;15.258;2022-07-10T06:27:09;96352.31;;;15.07;100.00
29379;BME280;16362;47.202;15.258;2022-07-10T06:29:35;96354.19;;;15.06;100.00
29379;BME280;16362;47.202;15.258;2022-07-10T06:32:03;96355.84;;;15.14;100.00
29379;BME280;16362;47.202;15.258;2022-07-10T06:34:30;96357.53;;;15.22;100.00
29379;BME280;16362;47.202;15.258;2022-07-10T06:36:57;96361.25;;;15.21;100.00
29379;BME280;16362;47.202;15.258;2022-07-10T06:39:24;96356.31;;;15.24;100.00
29379;BME280;16362;47.202;15.258;2022-07-10T06:41:50;96354.28;;;15.26;100.00
29379;BME280;16362;47.202;15.258;2022-07-10T06:44:17;96346.22;;;15.26;100.00
29379;BME280;16362;47.202;15.258;2022-07-10T06:46:44;96345.16;;;15.27;100.00
29379;BME280;16362;47.202;15.258;2022-07-10T06:49:31;96344.63;;;15.59;100.00
29379;BME280;16362;47.202;15.258;2022-07-10T06:51:58;96339.09;;;16.00;100.00
29379;BME280;16362;47.202;15.258;2022-07-10T06:54:24;96341.19;;;16.19;100.00
29379;BME280;16362;47.202;15.258;2022-07-10T06:56:51;96321.25;;;16.40;100.00
29379;BME280;16362;47.202;15.258;2022-07-10T06:59:18;96329.53;;;16.52;100.00
29379;BME280;16362;47.202;15.258;2022-07-10T07:01:45;96317.91;;;16.64;100.00
29379;BME280;16362;47.202;15.258;2022-07-10T07:04:12;96317.81;;;16.91;100.00
29379;BME280;16362;47.202;15.258;2022-07-10T07:06:38;96336.78;;;16.51;100.00
29379;BME280;16362;47.202;15.258;2022-07-10T07:09:05;96334.94;;;16.38;100.00
29379;BME280;16362;47.202;15.258;2022-07-10T07:11:32;96339.50;;;16.24;100.00
29379;BME280;16362;47.202;15.258;2022-07-10T07:13:59;96331.22;;;16.32;100.00
29379;BME280;16362;47.202;15.258;2022-07-10T07:16:26;96329.94;;;16.48;100.00
29379;BME280;16362;47.202;15.258;2022-07-10T07:19:08;96326.97;;;16.83;100.00
29379;BME280;16362;47.202;15.258;2022-07-10T07:21:37;96321.78;;;16.95;100.00
29379;BME280;16362;47.202;15.258;2022-07-10T07:24:22;96325.78;;;17.18;100.00
29379;BME280;16362;47.202;15.258;2022-07-10T07:26:49;96307.19;;;17.48;100.00
29379;BME280;16362;47.202;15.258;2022-07-10T07:29:16;96313.41;;;17.49;100.00
29379;BME280;16362;47.202;15.258;2022-07-10T07:31:43;96317.13;;;17.48;100.00
29379;BME280;16362;47.202;15.258;2022-07-10T07:34:10;96316.72;;;17.51;100.00
29379;BME280;16362;47.202;15.258;2022-07-10T07:36:37;96313.13;;;17.57;100.00
29379;BME280;16362;47.202;15.258;2022-07-10T07:39:04;96306.69;;;17.58;100.00
29379;BME280;16362;47.202;15.258;2022-07-10T07:41:31;96307.88;;;17.30;100.00
29379;BME280;16362;47.202;15.258;2022-07-10T07:43:58;96311.47;;;17.24;100.00
29379;BME280;16362;47.202;15.258;2022-07-10T07:46:25;96305.28;;;17.49;100.00
29379;BME280;16362;47.202;15.258;2022-07-10T07:48:51;96309.72;;;17.37;100.00
29379;BME280;16362;47.202;15.258;2022-07-10T07:51:18;96300.13;;;17.47;100.00
29379;BME280;16362;47.202;15.258;2022-07-10T07:53:45;96304.22;;;17.57;100.00
29379;BME280;16362;47.202;15.258;2022-07-10T07:56:12;96301.78;;;17.48;100.00
29379;BME280;16362;47.202;15.258;2022-07-10T07:58:38;96289.34;;;17.47;100.00
29379;BME280;16362;47.202;15.258;2022-07-10T08:01:05;96299.38;;;17.65;100.00
29379;BME280;16362;47.202;15.258;2022-07-10T08:03:33;96297.22;;;18.06;100.00
29379;BME280;16362;47.202;15.258;2022-07-10T08:06:19;96297.81;;;18.33;97.55
29379;BME280;16362;47.202;15.258;2022-07-10T08:08:46;96306.09;;;18.57;95.84
29379;BME280;16362;47.202;15.258;2022-07-10T08:11:13;96297.88;;;18.89;90.13
29379;BME280;16362;47.202;15.258;2022-07-10T08:13:40;96290.81;;;18.88;89.10
29379;BME280;16362;47.202;15.258;2022-07-10T08:16:06;96291.75;;;18.94;87.27
29379;BME280;16362;47.202;15.258;2022-07-10T08:18:34;96284.81;;;19.16;88.23
29379;BME280;16362;47.202;15.258;2022-07-10T08:21:02;96282.94;;;19.17;88.43
29379;BME280;16362;47.202;15.258;2022-07-10T08:23:29;96285.13;;;19.39;86.21
29379;BME280;16362;47.202;15.258;2022-07-10T08:25:55;96281.06;;;19.48;83.36
29379;BME280;16362;47.202;15.258;2022-07-10T08:28:22;96285.91;;;19.88;82.04
29379;BME280;16362;47.202;15.258;2022-07-10T08:30:50;96275.19;;;19.93;83.34
29379;BME280;16362;47.202;15.258;2022-07-10T08:33:17;96268.03;;;19.57;80.82
29379;BME280;16362;47.202;15.258;2022-07-10T08:35:43;96262.06;;;19.78;83.12
29379;BME280;16362;47.202;15.258;2022-07-10T08:38:10;96263.06;;;19.84;75.96
29379;BME280;16362;47.202;15.258;2022-07-10T08:40:38;96257.78;;;20.36;80.01
29379;BME280;16362;47.202;15.258;2022-07-10T08:43:05;96255.16;;;20.77;77.55
29379;BME280;16362;47.202;15.258;2022-07-10T08:45:33;96245.91;;;20.90;72.03
29379;BME280;16362;47.202;15.258;2022-07-10T08:48:03;96245.50;;;20.98;72.78
29379;BME280;16362;47.202;15.258;2022-07-10T08:50:33;96243.69;;;21.45;69.67
29379;BME280;16362;47.202;15.258;2022-07-10T08:53:13;96235.66;;;21.67;61.15
29379;BME280;16362;47.202;15.258;2022-07-10T08:55:43;96245.69;;;22.17;67.13
29379;BME280;16362;47.202;15.258;2022-07-10T08:58:12;96232.63;;;22.53;59.86
29379;BME280;16362;47.202;15.258;2022-07-10T09:00:39;96225.28;;;22.54;57.40
29379;BME280;16362;47.202;15.258;2022-07-10T09:05:33;96231.38;;;22.22;58.88
29379;BME280;16362;47.202;15.258;2022-07-10T09:08:02;96230.66;;;22.10;58.04
29379;BME280;16362;47.202;15.258;2022-07-10T09:10:29;96229.84;;;21.92;56.60
29379;BME280;16362;47.202;15.258;2022-07-10T09:13:00;96231.72;;;22.09;60.27
29379;BME280;16362;47.202;15.258;2022-07-10T09:15:29;96228.16;;;22.42;61.67
29379;BME280;16362;47.202;15.258;2022-07-10T09:18:03;96218.28;;;22.58;55.09
29379;BME280;16362;47.202;15.258;2022-07-10T09:20:37;96226.50;;;23.08;57.76
29379;BME280;16362;47.202;15.258;2022-07-10T09:23:18;96227.13;;;23.15;49.99
29379;BME280;16362;47.202;15.258;2022-07-10T09:25:47;96225.97;;;23.11;54.43
29379;BME280;16362;47.202;15.258;2022-07-10T09:28:17;96223.69;;;23.02;53.32
29379;BME280;16362;47.202;15.258;2022-07-10T09:30:46;96226.19;;;22.82;52.30
29379;BME280;16362;47.202;15.258;2022-07-10T09:33:24;96235.09;;;22.55;54.60
29379;BME280;16362;47.202;15.258;2022-07-10T09:36:08;96229.78;;;22.26;53.50
29379;BME280;16362;47.202;15.258;2022-07-10T09:41:31;96223.47;;;21.86;51.15
29379;BME280;16362;47.202;15.258;2022-07-10T09:44:00;96225.13;;;22.04;54.68
29379;BME280;16362;47.202;15.258;2022-07-10T09:46:37;96216.66;;;22.57;56.51
29379;BME280;16362;47.202;15.258;2022-07-10T09:49:12;96206.25;;;22.98;48.85
29379;BME280;16362;47.202;15.258;2022-07-10T09:51:40;96202.63;;;23.15;49.36
29379;BME280;16362;47.202;15.258;2022-07-10T09:54:14;96208.50;;;23.29;55.17
29379;BME280;16362;47.202;15.258;2022-07-10T09:56:48;96214.47;;;23.53;57.46
29379;BME280;16362;47.202;15.258;2022-07-10T09:59:19;96205.13;;;22.94;53.16
29379;BME280;16362;47.202;15.258;2022-07-10T10:01:51;96207.84;;;22.50;49.09
29379;BME280;16362;47.202;15.258;2022-07-10T10:04:21;96201.25;;;22.46;53.16
29379;BME280;16362;47.202;15.258;2022-07-10T10:06:52;96195.09;;;22.33;48.51
29379;BME280;16362;47.202;15.258;2022-07-10T10:09:28;96199.44;;;21.95;51.87
29379;BME280;16362;47.202;15.258;2022-07-10T10:11:57;96196.66;;;21.90;53.08
29379;BME280;16362;47.202;15.258;2022-07-10T10:14:28;96199.94;;;21.92;60.14
29379;BME280;16362;47.202;15.258;2022-07-10T10:16:56;96196.13;;;21.93;55.16
29379;BME280;16362;47.202;15.258;2022-07-10T10:19:24;96206.19;;;21.76;60.30
29379;BME280;16362;47.202;15.258;2022-07-10T10:22:09;96201.50;;;21.71;63.44
29379;BME280;16362;47.202;15.258;2022-07-10T10:24:42;96209.41;;;21.56;65.38
29379;BME280;16362;47.202;15.258;2022-07-10T10:27:09;96218.66;;;21.43;71.26
29379;BME280;16362;47.202;15.258;2022-07-10T10:29:37;96222.03;;;21.04;61.24
29379;BME280;16362;47.202;15.258;2022-07-10T10:32:07;96234.25;;;20.78;69.44
29379;BME280;16362;47.202;15.258;2022-07-10T10:34:41;96238.31;;;20.51;72.91
29379;BME280;16362;47.202;15.258;2022-07-10T10:40:09;96238.69;;;19.84;73.47
29379;BME280;16362;47.202;15.258;2022-07-10T10:42:40;96237.03;;;19.83;77.14
29379;BME280;16362;47.202;15.258;2022-07-10T10:48:04;96224.41;;;20.72;72.93
29379;BME280;16362;47.202;15.258;2022-07-10T10:50:52;96205.28;;;21.07;63.09
29379;BME280;16362;47.202;15.258;2022-07-10T10:53:20;96203.69;;;21.40;57.91
29379;BME280;16362;47.202;15.258;2022-07-10T10:58:45;96199.44;;;21.95;61.74
29379;BME280;16362;47.202;15.258;2022-07-10T11:14:33;96185.75;;;23.13;54.01
29379;BME280;16362;47.202;15.258;2022-07-10T11:17:01;96196.41;;;22.70;54.33
29379;BME280;16362;47.202;15.258;2022-07-10T11:19:29;96187.44;;;22.69;54.86
29379;BME280;16362;47.202;15.258;2022-07-10T11:22:09;96179.78;;;22.66;49.58
29379;BME280;16362;47.202;15.258;2022-07-10T11:25:01;96174.94;;;22.51;54.18
29379;BME280;16362;47.202;15.258;2022-07-10T11:27:36;96180.47;;;22.34;52.42
29379;BME280;16362;47.202;15.258;2022-07-10T11:30:08;96183.25;;;22.62;57.27
29379;BME280;16362;47.202;15.258;2022-07-10T11:32:36;96183.66;;;22.98;56.34
29379;BME280;16362;47.202;15.258;2022-07-10T11:35:11;96177.13;;;23.21;55.63
29379;BME280;16362;47.202;15.258;2022-07-10T11:37:54;96174.44;;;22.99;51.56
29379;BME280;16362;47.202;15.258;2022-07-10T11:40:20;96169.22;;;22.97;59.16
29379;BME280;16362;47.202;15.258;2022-07-10T11:42:55;96167.25;;;23.15;52.59
29379;BME280;16362;47.202;15.258;2022-07-10T11:47:49;96170.72;;;22.83;55.10
29379;BME280;16362;47.202;15.258;2022-07-10T11:50:16;96172.50;;;22.50;54.69
29379;BME280;16362;47.202;15.258;2022-07-10T11:52:45;96176.56;;;22.30;57.28
29379;BME280;16362;47.202;15.258;2022-07-10T11:55:21;96180.63;;;22.11;57.83
29379;BME280;16362;47.202;15.258;2022-07-10T11:57:48;96185.25;;;22.10;59.17
29379;BME280;16362;47.202;15.258;2022-07-10T12:00:28;96185.19;;;22.05;58.96
29379;BME280;16362;47.202;15.258;2022-07-10T12:03:16;96203.47;;;21.93;63.06
29379;BME280;16362;47.202;15.258;2022-07-10T12:05:43;96219.53;;;21.60;59.00
29379;BME280;16362;47.202;15.258;2022-07-10T12:08:10;96211.22;;;21.21;66.74
29379;BME280;16362;47.202;15.258;2022-07-10T12:10:37;96209.03;;;21.06;72.36
29379;BME280;16362;47.202;15.258;2022-07-10T12:13:09;96225.34;;;20.94;76.61
29379;BME280;16362;47.202;15.258;2022-07-10T12:15:46;96222.94;;;20.81;78.61
29379;BME280;16362;47.202;15.258;2022-07-10T12:18:18;96229.50;;;20.85;76.81
29379;BME280;16362;47.202;15.258;2022-07-10T12:20:49;96217.31;;;20.99;75.33
29379;BME280;16362;47.202;15.258;2022-07-10T12:23:19;96213.03;;;21.15;63.80
29379;BME280;16362;47.202;15.258;2022-07-10T12:25:47;96210.47;;;21.55;69.85
29379;BME280;16362;47.202;15.258;2022-07-10T12:28:17;96204.81;;;21.56;59.58
29379;BME280;16362;47.202;15.258;2022-07-10T12:30:46;96217.00;;;21.42;59.67
29379;BME280;16362;47.202;15.258;2022-07-10T12:33:19;96209.56;;;21.20;58.86
29379;BME280;16362;47.202;15.258;2022-07-10T12:35:59;96198.41;;;21.16;60.19
29379;BME280;16362;47.202;15.258;2022-07-10T12:38:29;96195.69;;;21.16;63.63
29379;BME280;16362;47.202;15.258;2022-07-10T12:41:10;96198.94;;;21.01;65.26
29379;BME280;16362;47.202;15.258;2022-07-10T12:43:38;96193.38;;;21.08;68.04
29379;BME280;16362;47.202;15.258;2022-07-10T12:46:15;96196.94;;;21.26;63.39
29379;BME280;16362;47.202;15.258;2022-07-10T12:48:43;96194.88;;;21.33;62.62
29379;BME280;16362;47.202;15.258;2022-07-10T12:51:22;96204.88;;;21.61;64.99
29379;BME280;16362;47.202;15.258;2022-07-10T12:53:49;96203.25;;;21.60;63.14
29379;BME280;16362;47.202;15.258;2022-07-10T12:56:29;96195.63;;;21.45;59.92
29379;BME280;16362;47.202;15.258;2022-07-10T12:58:58;96190.78;;;21.47;68.59
29379;BME280;16362;47.202;15.258;2022-07-10T13:01:28;96193.69;;;21.58;57.22
29379;BME280;16362;47.202;15.258;2022-07-10T13:04:00;96191.22;;;21.56;57.61
29379;BME280;16362;47.202;15.258;2022-07-10T13:06:31;96198.69;;;21.49;59.52
29379;BME280;16362;47.202;15.258;2022-07-10T13:08:58;96206.38;;;21.40;58.74
29379;BME280;16362;47.202;15.258;2022-07-10T13:11:25;96217.69;;;21.20;59.52
29379;BME280;16362;47.202;15.258;2022-07-10T13:13:53;96219.53;;;21.02;62.24
29379;BME280;16362;47.202;15.258;2022-07-10T13:16:23;96223.94;;;20.92;66.09
29379;BME280;16362;47.202;15.258;2022-07-10T13:18:51;96232.22;;;20.85;67.77
29379;BME280;16362;47.202;15.258;2022-07-10T13:21:17;96241.47;;;20.72;66.69